Time;durP1;ratioP1;P1;durP2;ratioP2;P2;SDS_P1;SDS_P2;PMS_P1;PMS_P2;Temp;Humidity;BMP_temperature;BMP_pressure;BME280_temperature;BME280_humidity;BME280_pressure;Samples;Min_cycle;Max_cycle;Signal;HPM_P1;HPM_P2
2024/01/20 00:02:14;;;;;;;14.65;6.18;;;;;;;-0.33;100.00;100988.78;5134929;27;20134;-46
2024/01/20 00:04:44;;;;;;;14.80;6.20;;;;;;;-0.40;100.00;100981.81;5135218;27;20047;-48
2024/01/20 00:07:13;;;;;;;13.63;6.68;;;;;;;-0.54;100.00;100986.25;5135468;27;20079;-46
2024/01/20 00:09:46;;;;;;;15.80;6.85;;;;;;;-0.57;100.00;100983.63;5134148;27;20071;-47
2024/01/20 00:12:19;;;;;;;13.60;6.57;;;;;;;-0.53;100.00;100993.22;5134207;27;20047;-46
2024/01/20 00:14:50;;;;;;;14.73;6.45;;;;;;;-0.54;100.00;100999.34;5135263;27;20130;-46
2024/01/20 00:17:21;;;;;;;13.75;6.00;;;;;;;-0.47;100.00;100993.22;5135344;27;20059;-46
2024/01/20 00:19:57;;;;;;;12.80;5.18;;;;;;;-0.46;100.00;101000.19;5135499;27;20077;-45
2024/01/20 00:22:26;;;;;;;10.40;5.32;;;;;;;-0.61;100.00;100998.47;5135202;27;20039;-46
2024/01/20 00:24:58;;;;;;;15.15;5.82;;;;;;;-0.57;100.00;100995.00;5135555;27;20039;-46
2024/01/20 00:27:27;;;;;;;14.75;6.20;;;;;;;-0.61;100.00;100994.09;5135161;27;20047;-45
2024/01/20 00:29:56;;;;;;;11.68;5.45;;;;;;;-0.51;100.00;101001.94;5135364;27;20058;-47
2024/01/20 00:32:25;;;;;;;13.32;6.28;;;;;;;-0.56;100.00;101004.59;5135208;27;20115;-47
2024/01/20 00:34:54;;;;;;;12.20;6.15;;;;;;;-0.50;100.00;100993.19;5135783;27;20047;-47
2024/01/20 00:37:38;;;;;;;14.68;5.95;;;;;;;-0.56;100.00;100996.72;5136949;27;20051;-45
2024/01/20 00:40:08;;;;;;;13.63;6.05;;;;;;;-0.49;100.00;101001.06;5138195;27;20477;-46
2024/01/20 00:42:36;;;;;;;13.70;5.95;;;;;;;-0.46;100.00;101000.19;5139589;27;20047;-45
2024/01/20 00:45:07;;;;;;;11.70;6.20;;;;;;;-0.53;100.00;100996.72;5138635;27;20084;-45
2024/01/20 00:47:37;;;;;;;14.13;6.15;;;;;;;-0.46;100.00;101005.44;5138275;27;20108;-47
2024/01/20 00:50:08;;;;;;;11.70;6.30;;;;;;;-0.42;100.00;101000.16;5136048;27;20043;-48
2024/01/20 00:52:40;;;;;;;11.90;6.03;;;;;;;-0.45;100.00;101018.53;5135275;27;20051;-46
2024/01/20 00:55:11;;;;;;;16.27;6.28;;;;;;;-0.51;100.00;101015.03;5134477;27;20043;-46
2024/01/20 00:57:40;;;;;;;13.57;6.20;;;;;;;-0.49;100.00;101029.88;5134359;27;20429;-47
2024/01/20 01:00:11;;;;;;;12.05;6.32;;;;;;;-0.57;100.00;101020.31;5133919;27;20070;-47
2024/01/20 01:02:42;;;;;;;13.85;6.45;;;;;;;-0.69;100.00;101032.56;5134054;27;20043;-46
2024/01/20 01:05:14;;;;;;;15.45;7.38;;;;;;;-0.77;100.00;101033.44;5133695;27;20135;-47
2024/01/20 01:07:47;;;;;;;13.75;6.38;;;;;;;-0.91;100.00;101039.56;5133947;27;20476;-46
2024/01/20 01:10:18;;;;;;;12.88;6.40;;;;;;;-0.83;100.00;101039.56;5134300;27;20431;-47
2024/01/20 01:12:47;;;;;;;13.85;6.80;;;;;;;-0.94;100.00;101036.97;5133806;27;20039;-45
2024/01/20 01:15:18;;;;;;;15.57;7.10;;;;;;;-1.00;100.00;101042.19;5134290;27;20457;-46
2024/01/20 01:17:46;;;;;;;16.50;7.60;;;;;;;-0.91;100.00;101050.06;5133720;27;20062;-46
2024/01/20 01:20:15;;;;;;;18.88;7.03;;;;;;;-0.87;100.00;101054.44;5134266;27;20122;-48
2024/01/20 01:22:43;;;;;;;15.68;7.10;;;;;;;-0.92;100.00;101057.91;5133587;27;20399;-47
2024/01/20 01:25:19;;;;;;;17.45;7.47;;;;;;;-0.92;100.00;101064.03;5133393;27;20058;-45
2024/01/20 01:27:47;;;;;;;15.57;7.43;;;;;;;-1.06;100.00;101071.03;5133481;27;20055;-46
2024/01/20 01:30:15;;;;;;;14.77;7.53;;;;;;;-1.00;100.00;101070.13;5134002;27;20066;-47
2024/01/20 01:32:44;;;;;;;17.27;7.07;;;;;;;-1.05;100.00;101079.75;5133858;27;20051;-44
2024/01/20 01:35:12;;;;;;;17.92;7.85;;;;;;;-1.25;100.00;101074.50;5133673;27;20040;-47
2024/01/20 01:37:45;;;;;;;16.80;7.47;;;;;;;-1.15;100.00;101076.25;5133357;27;20138;-45
2024/01/20 01:40:15;;;;;;;15.15;7.88;;;;;;;-1.06;100.00;101088.44;5134150;27;20443;-46
2024/01/20 01:42:46;;;;;;;15.02;7.43;;;;;;;-0.96;100.00;101075.38;5134288;27;20039;-48
2024/01/20 01:45:15;;;;;;;17.60;6.80;;;;;;;-0.96;100.00;101072.78;5136181;27;20039;-46
2024/01/20 01:47:43;;;;;;;14.65;7.15;;;;;;;-1.04;100.00;101071.88;5133460;27;20131;-45
2024/01/20 01:50:12;;;;;;;17.65;7.05;;;;;;;-1.10;100.00;101081.47;5133225;27;20047;-47
2024/01/20 01:52:41;;;;;;;14.57;7.20;;;;;;;-1.12;100.00;101070.13;5133461;27;20047;-44
2024/01/20 01:55:11;;;;;;;15.68;6.57;;;;;;;-1.13;100.00;101071.88;5133242;27;20108;-46
2024/01/20 01:57:42;;;;;;;12.57;6.30;;;;;;;-1.04;100.00;101076.25;5135737;27;20342;-46
2024/01/20 02:00:11;;;;;;;15.20;6.90;;;;;;;-1.11;100.00;101079.75;5137914;27;20058;-46
2024/01/20 02:02:40;;;;;;;18.08;7.50;;;;;;;-1.10;100.00;101074.50;5136436;27;20053;-45
2024/01/20 02:05:10;;;;;;;16.85;7.32;;;;;;;-1.20;100.00;101076.22;5137314;27;20043;-44
2024/01/20 02:07:39;;;;;;;15.55;7.28;;;;;;;-1.14;100.00;101085.84;5137209;27;20086;-45
2024/01/20 02:10:10;;;;;;;15.43;7.07;;;;;;;-1.14;100.00;101083.25;5137809;27;20138;-48
2024/01/20 02:12:41;;;;;;;14.40;7.22;;;;;;;-1.24;100.00;101094.56;5137376;27;20438;-45
2024/01/20 02:15:10;;;;;;;15.05;7.35;;;;;;;-1.18;100.00;101105.03;5136863;27;20071;-47
2024/01/20 02:17:52;;;;;;;15.60;7.22;;;;;;;-1.23;100.00;101099.81;5137084;27;20051;-45
2024/01/20 02:20:21;;;;;;;16.10;8.23;;;;;;;-1.21;100.00;101099.81;5137030;27;20416;-46
2024/01/20 02:22:54;;;;;;;12.90;7.00;;;;;;;-1.27;100.00;101110.25;5137497;27;20054;-46
2024/01/20 02:25:23;;;;;;;14.50;6.90;;;;;;;-1.24;100.00;101111.16;5137006;27;20552;-46
2024/01/20 02:27:51;;;;;;;14.75;7.18;;;;;;;-1.34;100.00;101114.63;5136915;27;20626;-46
2024/01/20 02:30:20;;;;;;;13.75;7.00;;;;;;;-1.22;100.00;101125.09;5137105;27;20093;-45
2024/01/20 02:32:48;;;;;;;16.10;7.22;;;;;;;-1.10;100.00;101128.63;5135394;27;20066;-46
2024/01/20 02:35:21;;;;;;;16.85;7.57;;;;;;;-1.10;100.00;101128.63;5136946;27;20487;-46
2024/01/20 02:37:51;;;;;;;15.50;7.63;;;;;;;-1.04;100.00;101133.88;5137035;27;20051;-46
2024/01/20 02:40:19;;;;;;;13.93;7.65;;;;;;;-1.12;100.00;101140.84;5137058;27;20412;-45
2024/01/20 02:42:51;;;;;;;16.23;7.53;;;;;;;-0.95;100.00;101136.50;5136989;27;20050;-46
2024/01/20 02:45:19;;;;;;;15.52;7.45;;;;;;;-0.94;100.00;101141.72;5136754;27;20053;-45
2024/01/20 02:47:50;;;;;;;16.60;7.72;;;;;;;-1.00;100.00;101140.84;5136784;27;20453;-48
2024/01/20 02:50:19;;;;;;;16.83;7.60;;;;;;;-0.95;100.00;101152.22;5136934;27;20047;-46
2024/01/20 02:52:53;;;;;;;16.33;7.65;;;;;;;-1.08;100.00;101147.81;5136831;27;20043;-46
2024/01/20 02:55:22;;;;;;;14.85;7.22;;;;;;;-1.16;100.00;101151.31;5136669;27;20043;-45
2024/01/20 02:57:50;;;;;;;14.30;7.13;;;;;;;-1.02;100.00;101151.31;5136908;27;20046;-47
2024/01/20 03:00:18;;;;;;;15.15;6.85;;;;;;;-1.18;100.00;101152.16;5136874;27;20050;-46
2024/01/20 03:02:48;;;;;;;15.52;7.43;;;;;;;-1.20;100.00;101144.31;5137121;27;20130;-47
2024/01/20 03:05:17;;;;;;;13.88;6.50;;;;;;;-1.24;100.00;101137.31;5137012;27;20142;-45
2024/01/20 03:07:45;;;;;;;14.15;7.07;;;;;;;-1.25;100.00;101138.19;5137197;27;20147;-46
2024/01/20 03:10:15;;;;;;;14.15;6.55;;;;;;;-1.21;100.00;101145.19;5135762;27;20137;-45
2024/01/20 03:12:43;;;;;;;17.13;7.30;;;;;;;-1.19;100.00;101137.31;5136436;27;20092;-46
2024/01/20 03:15:12;;;;;;;16.63;7.32;;;;;;;-1.14;100.00;101147.81;5136577;27;20122;-47
2024/01/20 03:17:43;;;;;;;17.42;7.65;;;;;;;-1.10;100.00;101154.78;5136121;27;20527;-47
2024/01/20 03:20:12;;;;;;;16.02;7.85;;;;;;;-1.10;100.00;101160.03;5136411;27;20047;-48
2024/01/20 03:22:45;;;;;;;14.70;7.72;;;;;;;-1.08;100.00;101171.38;5137143;27;20099;-47
2024/01/20 03:25:15;;;;;;;15.20;7.72;;;;;;;-1.11;100.00;101164.41;5137225;27;20047;-46
2024/01/20 03:27:44;;;;;;;14.10;7.47;;;;;;;-1.15;100.00;101162.66;5136704;27;20484;-46
2024/01/20 03:30:14;;;;;;;14.90;7.25;;;;;;;-1.07;100.00;101162.66;5136670;27;20051;-47
2024/01/20 03:32:45;;;;;;;15.60;7.28;;;;;;;-1.14;100.00;101164.41;5136230;27;20043;-46
2024/01/20 03:35:17;;;;;;;13.52;7.70;;;;;;;-1.06;100.00;101170.53;5136469;27;20069;-48
2024/01/20 03:37:48;;;;;;;16.67;7.57;;;;;;;-1.08;100.00;101179.22;5136765;27;20096;-47
2024/01/20 03:40:20;;;;;;;17.40;8.85;;;;;;;-1.03;100.00;101177.50;5136818;27;20430;-50
2024/01/20 03:42:48;;;;;;;16.75;8.02;;;;;;;-1.08;100.00;101181.84;5136313;27;20050;-47
2024/01/20 03:45:20;;;;;;;18.48;9.52;;;;;;;-1.14;100.00;101189.72;5135763;27;20043;-45
2024/01/20 03:47:48;;;;;;;15.77;8.43;;;;;;;-1.11;100.00;101179.22;5135601;27;20047;-45
2024/01/20 03:50:17;;;;;;;17.38;9.05;;;;;;;-1.24;100.00;101176.59;5135819;27;20047;-45
2024/01/20 03:52:46;;;;;;;15.73;7.47;;;;;;;-1.10;100.00;101188.84;5136268;27;20054;-46
2024/01/20 03:55:17;;;;;;;17.88;8.63;;;;;;;-1.07;100.00;101191.44;5135656;27;20410;-48
2024/01/20 03:57:50;;;;;;;15.55;8.23;;;;;;;-1.11;100.00;101190.56;5135596;27;20058;-46
2024/01/20 04:00:19;;;;;;;13.77;7.90;;;;;;;-1.13;100.00;101197.56;5135748;27;20078;-47
2024/01/20 04:02:48;;;;;;;14.52;7.85;;;;;;;-0.99;100.00;101208.06;5134345;27;20130;-46
2024/01/20 04:05:16;;;;;;;15.13;7.85;;;;;;;-1.03;100.00;101208.94;5134444;27;20039;-46
2024/01/20 04:07:46;;;;;;;15.65;7.63;;;;;;;-0.97;100.00;101203.69;5135426;27;20043;-46
2024/01/20 04:10:16;;;;;;;13.80;6.90;;;;;;;-0.97;100.00;101203.69;5135195;27;20512;-46
2024/01/20 04:12:45;;;;;;;16.05;7.43;;;;;;;-1.03;100.00;101188.84;5134999;27;20345;-46
2024/01/20 04:15:15;;;;;;;16.33;7.22;;;;;;;-0.98;100.00;101186.22;5134847;27;20047;-46
2024/01/20 04:17:48;;;;;;;16.52;7.25;;;;;;;-0.97;100.00;101185.34;5134920;27;20074;-46
2024/01/20 04:20:17;;;;;;;14.18;6.90;;;;;;;-0.97;100.00;101177.50;5135599;27;20043;-45
2024/01/20 04:22:46;;;;;;;13.60;6.78;;;;;;;-0.93;100.00;101176.66;5134844;27;20526;-49
2024/01/20 04:25:14;;;;;;;18.75;6.50;;;;;;;-0.85;100.00;101187.16;5133977;27;20536;-46
2024/01/20 04:27:44;;;;;;;10.77;5.22;;;;;;;-0.79;100.00;101193.25;5134509;27;20086;-45
2024/01/20 04:30:16;;;;;;;12.38;6.35;;;;;;;-0.76;100.00;101193.28;5134465;27;20475;-46
2024/01/20 04:32:45;;;;;;;17.05;6.80;;;;;;;-0.85;100.00;101203.72;5134482;27;20416;-47
2024/01/20 04:35:13;;;;;;;13.38;6.45;;;;;;;-0.76;100.00;101206.38;5134288;27;20047;-46
2024/01/20 04:37:42;;;;;;;12.70;6.43;;;;;;;-0.65;100.00;101207.25;5134246;27;20043;-48
2024/01/20 04:40:11;;;;;;;12.93;6.75;;;;;;;-0.87;100.00;101205.44;5134268;27;20108;-46
2024/01/20 04:42:39;;;;;;;14.05;6.55;;;;;;;-0.77;100.00;101214.19;5133779;27;20043;-46
2024/01/20 04:45:12;;;;;;;12.80;6.57;;;;;;;-0.77;100.00;101217.72;5133831;27;20078;-45
2024/01/20 04:47:48;;;;;;;11.20;6.28;;;;;;;-0.66;100.00;101236.94;5133254;27;20121;-47
2024/01/20 04:50:19;;;;;;;13.13;6.55;;;;;;;-0.68;100.00;101241.28;5134422;27;20051;-45
2024/01/20 04:52:48;;;;;;;11.85;6.13;;;;;;;-0.55;100.00;101249.19;5134174;27;20063;-46
2024/01/20 04:55:17;;;;;;;13.15;6.85;;;;;;;-0.38;100.00;101252.69;5134381;27;20043;-46
2024/01/20 04:57:45;;;;;;;14.32;7.38;;;;;;;-0.54;100.00;101245.69;5133977;27;20089;-46
2024/01/20 05:00:14;;;;;;;14.35;6.65;;;;;;;-0.54;100.00;101248.31;5134133;27;20487;-46
2024/01/20 05:02:43;;;;;;;12.93;7.25;;;;;;;-0.55;100.00;101250.06;5134217;27;20399;-45
2024/01/20 05:05:13;;;;;;;15.68;7.30;;;;;;;-0.46;100.00;101249.19;5133969;27;20043;-46
2024/01/20 05:07:41;;;;;;;13.32;6.97;;;;;;;-0.37;100.00;101257.06;5133367;27;20764;-47
2024/01/20 05:10:10;;;;;;;15.82;7.15;;;;;;;-0.25;100.00;101267.56;5134480;27;20053;-46
2024/01/20 05:12:39;;;;;;;13.35;7.88;;;;;;;-0.44;100.00;101257.94;5133456;27;20195;-47
2024/01/20 05:15:12;;;;;;;16.58;7.35;;;;;;;-0.69;100.00;101263.13;5131611;27;20047;-46
2024/01/20 05:17:41;;;;;;;14.23;6.43;;;;;;;-0.69;100.00;101263.13;5133710;27;20047;-49
2024/01/20 05:20:15;;;;;;;11.60;6.28;;;;;;;-0.71;100.00;101258.75;5133702;27;20047;-46
2024/01/20 05:22:44;;;;;;;12.85;6.53;;;;;;;-0.79;100.00;101263.09;5132484;27;20039;-46
2024/01/20 05:25:16;;;;;;;14.48;6.70;;;;;;;-0.88;100.00;101264.81;5134330;27;20680;-47
2024/01/20 05:27:48;;;;;;;15.05;6.82;;;;;;;-0.79;100.00;101265.72;5133251;27;20062;-47
2024/01/20 05:30:16;;;;;;;14.63;6.47;;;;;;;-0.86;100.00;101270.09;5133369;27;20138;-46
2024/01/20 05:32:45;;;;;;;14.20;7.07;;;;;;;-0.85;100.00;101284.94;5132799;27;20104;-45
2024/01/20 05:35:18;;;;;;;14.63;6.63;;;;;;;-0.91;100.00;101277.06;5133040;27;20047;-47
2024/01/20 05:37:46;;;;;;;13.73;7.03;;;;;;;-0.87;100.00;101284.94;5133367;27;20059;-47
2024/01/20 05:40:14;;;;;;;14.27;6.80;;;;;;;-1.01;100.00;101288.38;5133675;27;20138;-45
2024/01/20 05:42:42;;;;;;;14.23;7.07;;;;;;;-0.99;100.00;101297.09;5134485;27;20460;-46
2024/01/20 05:45:11;;;;;;;14.70;6.85;;;;;;;-1.11;100.00;101289.22;5133829;27;20039;-46
2024/01/20 05:47:40;;;;;;;15.23;7.53;;;;;;;-1.17;100.00;101290.91;5133886;27;20484;-46
2024/01/20 05:50:09;;;;;;;14.18;6.97;;;;;;;-1.10;100.00;101299.69;5133469;27;20051;-60
2024/01/20 05:52:48;;;;;;;13.57;6.72;;;;;;;-1.14;100.00;101308.41;5133988;27;20051;-47
2024/01/20 05:55:17;;;;;;;14.35;6.93;;;;;;;-1.14;100.00;101305.78;5131781;27;20054;-46
2024/01/20 05:57:45;;;;;;;12.10;6.65;;;;;;;-1.14;100.00;101312.78;5133257;27;20476;-46
2024/01/20 06:00:16;;;;;;;12.68;6.10;;;;;;;-1.16;100.00;101324.13;5133389;27;20047;-45
2024/01/20 06:02:45;;;;;;;10.75;5.93;;;;;;;-1.13;100.00;101325.00;5131785;27;20538;-47
2024/01/20 06:05:13;;;;;;;14.73;7.15;;;;;;;-1.16;100.00;101333.69;5133949;27;20047;-46
2024/01/20 06:07:42;;;;;;;15.88;6.82;;;;;;;-1.10;100.00;101338.09;5133545;27;20548;-48
2024/01/20 06:10:12;;;;;;;13.30;6.57;;;;;;;-1.17;100.00;101332.81;5133580;27;20495;-46
2024/01/20 06:12:40;;;;;;;18.38;6.90;;;;;;;-1.07;100.00;101343.31;5134082;27;20122;-46
2024/01/20 06:15:10;;;;;;;15.13;6.88;;;;;;;-1.01;100.00;101349.47;5132706;27;20047;-45
2024/01/20 06:17:38;;;;;;;15.23;6.28;;;;;;;-0.99;100.00;101352.09;5131675;27;20046;-48
2024/01/20 06:20:10;;;;;;;13.55;6.57;;;;;;;-1.01;100.00;101364.31;5133854;27;20086;-46
2024/01/20 06:22:39;;;;;;;13.63;6.72;;;;;;;-1.02;100.00;101358.22;5134047;27;20043;-45
2024/01/20 06:25:08;;;;;;;13.35;6.90;;;;;;;-1.08;100.00;101352.06;5133375;27;20051;-46
2024/01/20 06:27:38;;;;;;;14.85;6.65;;;;;;;-1.02;100.00;101360.81;5134529;27;20047;-45
2024/01/20 06:30:07;;;;;;;17.00;6.80;;;;;;;-1.03;100.00;101358.19;5134647;27;20059;-46
2024/01/20 06:32:39;;;;;;;14.25;7.10;;;;;;;-0.97;100.00;101366.94;5134619;27;20082;-46
2024/01/20 06:35:08;;;;;;;14.32;6.82;;;;;;;-1.01;100.00;101364.31;5133947;27;20055;-46
2024/01/20 06:37:37;;;;;;;15.48;6.85;;;;;;;-1.08;100.00;101367.75;5133721;27;20043;-44
2024/01/20 06:40:06;;;;;;;14.25;6.75;;;;;;;-0.95;100.00;101369.59;5133317;27;20503;-47
2024/01/20 06:42:35;;;;;;;14.02;7.07;;;;;;;-0.81;100.00;101380.13;5133281;27;20051;-47
2024/01/20 06:45:05;;;;;;;14.73;7.47;;;;;;;-0.71;100.00;101388.03;5136857;27;20043;-47
2024/01/20 06:47:34;;;;;;;14.18;7.13;;;;;;;-0.90;100.00;101400.16;5138433;27;20082;-47
2024/01/20 06:50:02;;;;;;;17.92;7.35;;;;;;;-0.82;100.00;101400.19;5137996;27;20134;-46
2024/01/20 06:52:32;;;;;;;14.52;6.97;;;;;;;-0.76;100.00;101408.09;5137943;27;20103;-47
2024/01/20 06:55:02;;;;;;;12.23;6.63;;;;;;;-0.66;100.00;101415.13;5137597;27;20480;-47
2024/01/20 06:57:30;;;;;;;16.73;7.30;;;;;;;-0.59;100.00;101416.88;5137147;27;20047;-46
2024/01/20 06:59:59;;;;;;;16.05;7.80;;;;;;;-0.41;100.00;101420.44;5137403;27;20079;-47
2024/01/20 07:02:33;;;;;;;13.40;7.10;;;;;;;-0.35;100.00;101426.59;5138584;27;20051;-47
2024/01/20 07:05:01;;;;;;;17.63;7.60;;;;;;;-0.36;100.00;101430.09;5140204;27;20047;-45
2024/01/20 07:07:33;;;;;;;13.63;6.95;;;;;;;-0.38;100.00;101439.72;5137849;27;20051;-45
2024/01/20 07:10:02;;;;;;;16.98;7.28;;;;;;;-0.54;100.00;101447.50;5136892;27;20126;-46
2024/01/20 07:12:30;;;;;;;13.10;7.40;;;;;;;-0.32;100.00;101454.56;5136389;27;20049;-46
2024/01/20 07:14:59;;;;;;;15.05;7.25;;;;;;;-0.12;100.00;101455.50;5136639;27;20039;-46
2024/01/20 07:17:29;;;;;;;14.20;7.10;;;;;;;-0.01;100.00;101461.63;5136432;27;20395;-46
2024/01/20 07:19:58;;;;;;;16.13;8.00;;;;;;;0.00;100.00;101459.91;5136183;27;20102;-49
2024/01/20 07:22:26;;;;;;;12.82;7.30;;;;;;;0.16;100.00;101460.81;5135855;27;20126;-46
2024/01/20 07:24:55;;;;;;;15.55;7.50;;;;;;;0.19;100.00;101455.56;5135899;27;20058;-48
2024/01/20 07:27:23;;;;;;;16.52;7.38;;;;;;;0.29;100.00;101462.59;5135761;27;20051;-46
2024/01/20 07:29:54;;;;;;;14.20;6.97;;;;;;;-0.05;100.00;101467.75;5135643;27;20055;-48
2024/01/20 07:32:23;;;;;;;15.18;7.22;;;;;;;0.14;100.00;101463.44;5136009;27;20130;-45
2024/01/20 07:34:53;;;;;;;13.95;7.05;;;;;;;0.08;100.00;101473.03;5136234;27;20075;-47
2024/01/20 07:37:21;;;;;;;14.32;7.47;;;;;;;-0.06;100.00;101484.38;5135072;27;20377;-49
2024/01/20 07:39:50;;;;;;;11.98;6.53;;;;;;;-0.06;100.00;101475.63;5135958;27;20150;-48
2024/01/20 07:42:18;;;;;;;17.33;7.20;;;;;;;0.14;100.00;101475.69;5135656;27;20079;-48
2024/01/20 07:44:46;;;;;;;16.40;7.10;;;;;;;0.19;100.00;101480.06;5135373;27;20040;-45
2024/01/20 07:47:15;;;;;;;16.05;7.32;;;;;;;0.26;100.00;101484.44;5135370;27;20051;-46
2024/01/20 07:49:46;;;;;;;16.30;7.65;;;;;;;0.12;100.00;101480.94;5135466;27;20473;-46
2024/01/20 07:52:18;;;;;;;14.02;6.90;;;;;;;0.45;100.00;101485.34;5133866;27;20065;-47
2024/01/20 07:54:47;;;;;;;14.80;7.13;;;;;;;0.38;100.00;101483.56;5134720;27;20047;-46
2024/01/20 07:57:17;;;;;;;15.07;7.05;;;;;;;0.43;100.00;101494.97;5136551;27;20475;-46
2024/01/20 07:59:46;;;;;;;14.93;7.28;;;;;;;0.52;100.00;101491.47;5135012;27;20554;-47
2024/01/20 08:02:15;;;;;;;15.93;7.65;;;;;;;0.43;100.00;101501.97;5134974;27;20514;-45
2024/01/20 08:04:43;;;;;;;13.52;7.32;;;;;;;0.12;100.00;101495.78;5135197;27;20043;-47
2024/01/20 08:07:12;;;;;;;15.60;7.55;;;;;;;0.26;100.00;101505.44;5135182;27;20073;-47
2024/01/20 08:09:43;;;;;;;15.13;7.13;;;;;;;0.25;100.00;101502.81;5134046;27;20104;-45
2024/01/20 08:12:11;;;;;;;15.85;7.75;;;;;;;0.24;100.00;101501.06;5134586;27;20043;-45
2024/01/20 08:14:41;;;;;;;13.80;7.53;;;;;;;0.28;100.00;101501.06;5133154;27;20422;-47
2024/01/20 08:17:09;;;;;;;16.15;7.70;;;;;;;0.25;100.00;101501.06;5134314;27;20051;-46
2024/01/20 08:19:42;;;;;;;16.48;7.22;;;;;;;0.30;100.00;101508.97;5134462;27;20050;-48
2024/01/20 08:22:12;;;;;;;15.57;8.48;;;;;;;0.41;100.00;101504.59;5134587;27;20055;-46
2024/01/20 08:24:41;;;;;;;14.70;7.93;;;;;;;0.41;100.00;101512.47;5134967;27;20071;-45
2024/01/20 08:27:10;;;;;;;19.13;7.50;;;;;;;0.51;100.00;101522.09;5134352;27;20047;-48
2024/01/20 08:29:39;;;;;;;16.38;8.32;;;;;;;0.69;100.00;101523.00;5134444;27;20050;-48
2024/01/20 08:32:07;;;;;;;14.80;7.85;;;;;;;0.57;100.00;101519.47;5134153;27;20082;-45
2024/01/20 08:34:41;;;;;;;14.55;7.60;;;;;;;0.59;100.00;101516.88;5134140;27;20047;-47
2024/01/20 08:37:12;;;;;;;15.13;8.18;;;;;;;0.66;100.00;101528.22;5134236;27;20043;-46
2024/01/20 08:39:40;;;;;;;18.60;8.32;;;;;;;0.71;100.00;101529.13;5133100;27;20050;-47
2024/01/20 08:42:10;;;;;;;15.25;8.40;;;;;;;0.71;100.00;101532.63;5134966;27;20043;-46
2024/01/20 08:44:42;;;;;;;17.35;7.97;;;;;;;0.93;100.00;101536.13;5134589;27;20043;-47
2024/01/20 08:47:10;;;;;;;15.40;8.10;;;;;;;1.23;100.00;101534.34;5134521;27;20165;-47
2024/01/20 08:49:38;;;;;;;17.80;8.07;;;;;;;1.32;100.00;101534.31;5133834;27;20377;-45
2024/01/20 08:52:06;;;;;;;13.55;7.68;;;;;;;1.47;100.00;101536.06;5132852;27;20435;-47
2024/01/20 08:54:38;;;;;;;16.60;8.68;;;;;;;1.60;100.00;101536.00;5133647;27;20508;-47
2024/01/20 08:57:06;;;;;;;15.45;7.75;;;;;;;1.51;100.00;101540.41;5134076;27;20416;-45
2024/01/20 08:59:37;;;;;;;13.93;7.40;;;;;;;1.35;100.00;101536.94;5133463;27;20503;-47
2024/01/20 09:02:07;;;;;;;15.15;7.15;;;;;;;1.19;100.00;101538.75;5134473;27;20047;-46
2024/01/20 09:04:36;;;;;;;13.10;6.88;;;;;;;1.15;100.00;101547.47;5134208;27;20101;-47
2024/01/20 09:07:03;;;;;;;13.88;7.07;;;;;;;1.27;100.00;101546.63;5132821;27;20571;-47
2024/01/20 09:09:31;;;;;;;15.30;8.13;;;;;;;1.40;100.00;101535.19;5132915;27;20050;-45
2024/01/20 09:12:00;;;;;;;17.10;7.47;;;;;;;1.63;100.00;101553.53;5132836;27;20062;-46
2024/01/20 09:14:28;;;;;;;17.23;7.65;;;;;;;1.81;100.00;101547.34;5132934;27;20103;-47
2024/01/20 09:16:57;;;;;;;16.17;7.60;;;;;;;2.03;100.00;101549.03;5133300;27;20047;-45
2024/01/20 09:19:27;;;;;;;15.30;6.90;;;;;;;2.07;100.00;101553.38;5133094;27;20043;-47
2024/01/20 09:21:55;;;;;;;11.38;7.15;;;;;;;1.95;100.00;101548.19;5132893;27;20403;-46
2024/01/20 09:24:24;;;;;;;17.27;8.93;;;;;;;2.01;100.00;101549.00;5133121;27;20567;-46
2024/01/20 09:26:52;;;;;;;16.33;8.13;;;;;;;2.13;100.00;101548.09;5133031;27;20074;-46
2024/01/20 09:29:20;;;;;;;15.82;7.38;;;;;;;2.12;100.00;101545.44;5132270;27;20073;-46
2024/01/20 09:31:49;;;;;;;15.98;6.97;;;;;;;2.26;100.00;101543.63;5133084;27;20415;-46
2024/01/20 09:34:17;;;;;;;12.93;6.38;;;;;;;2.01;100.00;101549.00;5133761;27;20058;-44
2024/01/20 09:36:48;;;;;;;13.60;6.35;;;;;;;1.82;100.00;101549.09;5134448;27;20051;-47
2024/01/20 09:39:17;;;;;;;12.98;6.38;;;;;;;2.01;100.00;101548.13;5134107;27;20488;-46
2024/01/20 09:41:47;;;;;;;15.40;7.07;;;;;;;1.95;100.00;101550.81;5134106;27;20058;-45
2024/01/20 09:44:16;;;;;;;14.55;6.75;;;;;;;1.90;100.00;101552.56;5135152;27;20464;-45
2024/01/20 09:46:45;;;;;;;16.00;7.20;;;;;;;2.13;100.00;101558.63;5137402;27;20053;-45
2024/01/20 09:49:13;;;;;;;14.00;6.70;;;;;;;2.26;100.00;101557.66;5136711;27;20089;-46
2024/01/20 09:51:50;;;;;;;12.30;6.35;;;;;;;2.23;100.00;101554.19;5136812;27;20054;-46
2024/01/20 09:54:19;;;;;;;14.38;6.72;;;;;;;2.34;100.00;101554.13;5134659;27;20092;-45
2024/01/20 09:56:48;;;;;;;13.50;6.72;;;;;;;2.59;100.00;101550.44;5134845;27;20061;-45
2024/01/20 09:59:18;;;;;;;12.65;6.57;;;;;;;2.22;100.00;101550.69;5133500;27;20488;-46
2024/01/20 10:01:48;;;;;;;11.23;6.05;;;;;;;2.41;100.00;101542.66;5133348;27;20058;-45
2024/01/20 10:04:18;;;;;;;11.77;5.93;;;;;;;2.12;100.00;101543.69;5133220;27;20102;-46
2024/01/20 10:06:54;;;;;;;;;;;;;;;2.22;100.00;101542.78;5134346;27;20126;-47
2024/01/20 10:09:26;;;;;;;16.67;6.05;;;;;;;2.36;100.00;101533.91;5132638;27;19956;-45
2024/01/20 10:11:55;;;;;;;17.75;6.40;;;;;;;2.42;100.00;101533.91;5132934;27;20445;-45
2024/01/20 10:14:24;;;;;;;14.27;7.20;;;;;;;2.29;100.00;101544.47;5133302;27;20063;-47
2024/01/20 10:16:54;;;;;;;19.38;6.90;;;;;;;2.26;100.00;101533.97;5131138;28;20046;-48
2024/01/20 10:19:22;;;;;;;14.68;7.75;;;;;;;2.38;100.00;101516.34;5135290;27;20066;-46
2024/01/20 10:21:51;;;;;;;17.08;6.90;;;;;;;2.63;100.00;101523.19;5136046;27;20473;-44
2024/01/20 10:24:23;;;;;;;14.35;7.22;;;;;;;2.41;100.00;101527.72;5136236;27;20062;-47
2024/01/20 10:26:53;;;;;;;13.07;6.72;;;;;;;2.58;100.00;101531.13;5136612;27;20480;-46
2024/01/20 10:29:21;;;;;;;14.10;6.88;;;;;;;2.70;100.00;101534.53;5135843;27;20142;-48
2024/01/20 10:31:49;;;;;;;14.27;6.72;;;;;;;2.70;100.00;101531.91;5136002;27;20055;-46
2024/01/20 10:34:19;;;;;;;14.65;7.90;;;;;;;2.58;100.00;101536.38;5136054;27;20071;-48
2024/01/20 10:36:55;;;;;;;13.57;6.68;;;;;;;2.41;100.00;101527.72;5135956;27;20108;-47
2024/01/20 10:39:29;;;;;;;13.57;7.10;;;;;;;2.64;100.00;101524.06;5135786;27;20047;-45
2024/01/20 10:42:02;;;;;;;12.63;6.05;;;;;;;2.48;100.00;101525.94;5135621;27;20043;-44
2024/01/20 10:44:33;;;;;;;12.10;5.97;;;;;;;2.41;100.00;101519.81;5135791;27;20055;-46
2024/01/20 10:47:12;;;;;;;15.20;6.40;;;;;;;2.63;100.00;101528.47;5135760;27;20051;-44
2024/01/20 10:49:48;;;;;;;15.18;6.70;;;;;;;2.58;100.00;101527.63;5135537;27;20039;-43
2024/01/20 10:52:17;;;;;;;15.02;6.20;;;;;;;2.46;100.00;101525.94;5135422;27;20083;-44
2024/01/20 10:54:51;;;;;;;13.30;6.45;;;;;;;2.72;100.00;101538.06;5135364;27;20054;-45
2024/01/20 10:57:19;;;;;;;11.27;5.72;;;;;;;2.61;100.00;101530.25;5135403;27;20534;-45
2024/01/20 10:59:50;;;;;;;16.42;6.43;;;;;;;2.74;100.00;101542.44;5135641;27;20606;-43
2024/01/20 11:02:18;;;;;;;14.43;5.80;;;;;;;2.72;100.00;101533.66;5135950;27;20047;-45
2024/01/20 11:04:46;;;;;;;11.65;5.82;;;;;;;2.96;100.00;101531.72;5135811;27;20043;-45
2024/01/20 11:07:22;;;;;;;14.70;5.97;;;;;;;2.90;100.00;101532.66;5135434;27;20107;-46
2024/01/20 11:10:00;;;;;;;13.73;5.68;;;;;;;3.05;100.00;101535.16;5135518;27;20091;-45
2024/01/20 11:12:30;;;;;;;15.15;5.38;;;;;;;2.96;100.00;101537.00;5135492;27;20126;-45
2024/01/20 11:15:01;;;;;;;13.55;5.75;;;;;;;2.88;100.00;101530.00;5135496;27;20039;-46
2024/01/20 11:17:30;;;;;;;11.65;5.45;;;;;;;2.84;100.00;101528.31;5134989;27;20070;-45
2024/01/20 11:20:07;;;;;;;16.70;6.53;;;;;;;3.00;100.00;101528.19;5134971;27;20500;-45
2024/01/20 11:22:40;;;;;;;14.32;5.82;;;;;;;2.99;100.00;101531.69;5135021;27;20088;-45
2024/01/20 11:25:12;;;;;;;15.18;6.03;;;;;;;2.95;100.00;101535.25;5134977;27;20435;-45